createdAt,value
2019-05-02T00:01:57.534Z,99.90
2019-05-02T00:04:26.951Z,99.90
2019-05-02T00:07:05.622Z,99.90
2019-05-02T00:09:36.300Z,99.90
2019-05-02T00:12:09.786Z,99.90
2019-05-02T00:14:39.487Z,99.90
2019-05-02T00:17:09.753Z,99.90
2019-05-02T00:19:39.257Z,99.90
2019-05-02T00:22:12.278Z,99.90
2019-05-02T00:24:41.685Z,99.90
2019-05-02T00:27:11.047Z,99.90
2019-05-02T00:29:40.552Z,99.90
2019-05-02T00:32:10.016Z,99.90
2019-05-02T00:34:39.300Z,99.90
2019-05-02T00:37:08.903Z,99.90
2019-05-02T00:39:38.481Z,99.90
2019-05-02T00:42:12.874Z,99.90
2019-05-02T00:44:42.042Z,99.90
2019-05-02T00:47:19.824Z,99.90
2019-05-02T00:49:49.275Z,99.90
2019-05-02T00:52:18.733Z,99.90
2019-05-02T00:54:48.273Z,99.90
2019-05-02T00:57:19.895Z,99.90
2019-05-02T00:59:48.769Z,99.90
2019-05-02T01:02:26.965Z,99.90
2019-05-02T01:04:59.272Z,99.90
2019-05-02T01:07:27.320Z,99.90
2019-05-02T01:09:56.893Z,99.90
2019-05-02T01:12:26.956Z,99.90
2019-05-02T01:14:56.584Z,99.90
2019-05-02T01:17:30.877Z,99.90
2019-05-02T01:19:57.714Z,99.90
2019-05-02T01:22:27.452Z,99.90
2019-05-02T01:24:56.936Z,99.90
2019-05-02T01:27:36.005Z,99.90
2019-05-02T01:30:20.809Z,99.90
2019-05-02T01:33:21.277Z,99.90
2019-05-02T01:36:06.385Z,99.90
2019-05-02T01:38:40.206Z,99.90
2019-05-02T01:41:09.568Z,99.90
2019-05-02T01:43:39.116Z,99.90
2019-05-02T01:46:08.444Z,99.90
2019-05-02T01:48:40.294Z,99.90
2019-05-02T01:51:11.878Z,99.90
2019-05-02T01:53:40.695Z,99.90
2019-05-02T01:56:10.271Z,99.90
2019-05-02T01:58:39.878Z,99.90
2019-05-02T02:01:09.385Z,99.90
2019-05-02T02:03:40.620Z,99.90
2019-05-02T02:06:10.303Z,99.90
2019-05-02T02:08:40.019Z,99.90
2019-05-02T02:11:09.589Z,99.90
2019-05-02T02:13:39.077Z,99.90
2019-05-02T02:16:08.625Z,99.90
2019-05-02T02:18:43.206Z,99.90
2019-05-02T02:21:37.981Z,99.90
2019-05-02T02:24:21.272Z,99.90
2019-05-02T02:26:49.953Z,99.90
2019-05-02T02:29:19.452Z,99.90
2019-05-02T02:31:49.102Z,99.90
2019-05-02T02:34:21.578Z,99.90
2019-05-02T02:36:49.697Z,99.90
2019-05-02T02:39:19.402Z,99.90
2019-05-02T02:41:52.028Z,99.90
2019-05-02T02:44:42.098Z,99.90
2019-05-02T02:47:18.292Z,99.90
2019-05-02T02:49:42.736Z,99.90
2019-05-02T02:52:12.321Z,99.90
2019-05-02T02:54:43.464Z,99.90
2019-05-02T02:57:25.727Z,99.90
2019-05-02T02:59:44.475Z,99.90
2019-05-02T03:02:14.086Z,99.90
2019-05-02T03:04:45.965Z,99.90
2019-05-02T03:07:24.058Z,99.90
2019-05-02T03:09:45.941Z,99.90
2019-05-02T03:12:36.264Z,99.90
2019-05-02T03:15:06.164Z,99.90
2019-05-02T03:17:35.897Z,99.90
2019-05-02T03:20:05.882Z,99.90
2019-05-02T03:22:41.958Z,99.90
2019-05-02T03:25:06.790Z,99.90
2019-05-02T03:27:37.705Z,99.90
2019-05-02T03:30:07.769Z,99.90
2019-05-02T03:32:37.252Z,99.90
2019-05-02T03:35:06.771Z,99.90
2019-05-02T03:37:36.608Z,99.90
2019-05-02T03:40:06.291Z,99.90
2019-05-02T03:42:43.935Z,99.90
2019-05-02T03:45:07.076Z,99.90
2019-05-02T03:47:43.316Z,99.90
2019-05-02T03:50:09.766Z,99.90
2019-05-02T03:52:43.818Z,99.90
2019-05-02T03:55:11.174Z,99.90
2019-05-02T03:57:42.101Z,99.90
2019-05-02T04:00:20.145Z,99.90
2019-05-02T04:02:44.308Z,99.90
2019-05-02T04:05:14.552Z,99.90
2019-05-02T04:07:44.081Z,99.90
2019-05-02T04:10:19.736Z,99.90
2019-05-02T04:12:53.286Z,99.90
2019-05-02T04:15:19.272Z,99.90
2019-05-02T04:17:49.404Z,99.90
2019-05-02T04:20:18.805Z,99.90
2019-05-02T04:22:49.007Z,99.90
2019-05-02T04:25:19.777Z,99.90
2019-05-02T04:27:50.395Z,99.90
2019-05-02T04:30:20.001Z,99.90
2019-05-02T04:32:55.286Z,99.90
2019-05-02T04:35:20.754Z,99.90
2019-05-02T04:37:50.314Z,99.90
2019-05-02T04:40:19.756Z,99.90
2019-05-02T04:42:51.260Z,99.90
2019-05-02T04:45:26.541Z,99.90
2019-05-02T04:47:59.010Z,99.90
2019-05-02T04:50:25.080Z,99.90
2019-05-02T04:52:54.236Z,99.90
2019-05-02T04:55:29.965Z,99.90
2019-05-02T04:57:55.209Z,99.90
2019-05-02T05:00:28.885Z,99.90
2019-05-02T05:02:58.735Z,99.90
2019-05-02T05:05:31.069Z,99.90
2019-05-02T05:07:59.481Z,99.90
2019-05-02T05:10:40.359Z,99.90
2019-05-02T05:13:00.419Z,99.90
2019-05-02T05:15:38.381Z,99.90
2019-05-02T05:18:04.399Z,99.90
2019-05-02T05:20:32.585Z,99.90
2019-05-02T05:23:02.359Z,99.90
2019-05-02T05:25:39.555Z,99.90
2019-05-02T05:28:09.220Z,99.90
2019-05-02T05:30:45.278Z,99.90
2019-05-02T05:33:10.400Z,99.90
2019-05-02T05:35:43.192Z,99.90
2019-05-02T05:38:11.075Z,99.90
2019-05-02T05:40:40.675Z,99.90
2019-05-02T05:43:14.579Z,99.90
2019-05-02T05:45:51.208Z,99.90
2019-05-02T05:48:13.831Z,99.90
2019-05-02T05:50:43.461Z,99.90
2019-05-02T05:53:17.301Z,99.90
2019-05-02T05:55:44.834Z,99.90
2019-05-02T05:58:15.752Z,99.90
2019-05-02T06:00:45.853Z,99.90
2019-05-02T06:03:17.945Z,99.90
2019-05-02T06:05:47.773Z,99.90
2019-05-02T06:08:18.359Z,99.90
2019-05-02T06:10:48.733Z,99.90
2019-05-02T06:13:18.624Z,99.90
2019-05-02T06:16:01.593Z,99.90
2019-05-02T06:18:22.609Z,99.90
2019-05-02T06:20:52.208Z,99.90
2019-05-02T06:23:21.723Z,99.90
2019-05-02T06:25:51.600Z,99.90
2019-05-02T06:28:21.026Z,99.90
2019-05-02T06:30:50.571Z,99.90
2019-05-02T06:33:20.311Z,99.90
2019-05-02T06:35:51.771Z,99.90
2019-05-02T06:38:22.931Z,99.90
2019-05-02T06:40:52.380Z,99.90
2019-05-02T06:43:22.156Z,99.90
2019-05-02T06:45:51.758Z,99.90
2019-05-02T06:48:21.486Z,99.90
2019-05-02T06:50:51.254Z,99.90
2019-05-02T06:53:20.792Z,99.90
2019-05-02T06:55:50.712Z,99.90
2019-05-02T06:58:20.471Z,99.90
2019-05-02T07:00:58.160Z,99.90
2019-05-02T07:03:21.686Z,99.90
2019-05-02T07:05:51.282Z,99.90
2019-05-02T07:08:20.997Z,99.90
2019-05-02T07:10:51.069Z,99.90
2019-05-02T07:13:20.570Z,99.90
2019-05-02T07:15:57.139Z,99.90
2019-05-02T07:18:28.196Z,99.90
2019-05-02T07:20:57.891Z,99.90
2019-05-02T07:23:27.669Z,99.90
2019-05-02T07:26:00.117Z,99.90
2019-05-02T07:28:28.632Z,99.90
2019-05-02T07:30:58.321Z,99.90
2019-05-02T07:33:32.451Z,99.90
2019-05-02T07:36:00.117Z,99.90
2019-05-02T07:38:30.196Z,99.90
2019-05-02T07:41:00.082Z,99.90
2019-05-02T07:43:30.012Z,99.90
2019-05-02T07:45:59.747Z,99.90
2019-05-02T07:48:29.303Z,99.90
2019-05-02T07:50:58.890Z,99.90
2019-05-02T07:53:28.571Z,99.90
2019-05-02T07:55:58.004Z,99.90
2019-05-02T07:58:27.505Z,99.90
2019-05-02T08:00:56.917Z,99.90
2019-05-02T08:03:29.355Z,99.90
2019-05-02T08:05:58.604Z,99.90
2019-05-02T08:08:29.803Z,99.90
2019-05-02T08:11:02.896Z,99.90
2019-05-02T08:13:31.525Z,99.90
2019-05-02T08:16:01.323Z,99.90
2019-05-02T08:18:31.767Z,99.90
2019-05-02T08:21:01.186Z,99.90
2019-05-02T08:23:30.811Z,99.90
2019-05-02T08:26:00.439Z,99.90
2019-05-02T08:28:35.609Z,99.90
2019-05-02T08:31:05.421Z,99.90
2019-05-02T08:33:35.952Z,99.90
2019-05-02T08:36:05.603Z,99.90
2019-05-02T08:38:35.290Z,99.90
2019-05-02T08:41:04.958Z,99.90
2019-05-02T08:43:34.498Z,99.90
2019-05-02T08:46:04.093Z,99.90
2019-05-02T08:48:36.458Z,99.90
2019-05-02T08:51:04.960Z,99.90
2019-05-02T08:53:34.734Z,99.90
2019-05-02T08:56:04.341Z,99.90
2019-05-02T08:58:34.281Z,99.90
2019-05-02T09:01:03.977Z,99.90
2019-05-02T09:03:38.854Z,99.90
2019-05-02T09:06:06.225Z,99.90
2019-05-02T09:08:35.922Z,99.90
2019-05-02T09:11:05.808Z,99.90
2019-05-02T09:13:35.276Z,99.90
2019-05-02T09:16:06.058Z,99.90
2019-05-02T09:18:39.591Z,99.90
2019-05-02T09:21:06.876Z,99.90
2019-05-02T09:23:37.234Z,99.90
2019-05-02T09:26:07.026Z,99.90
2019-05-02T09:28:36.672Z,99.90
2019-05-02T09:31:06.776Z,99.90
2019-05-02T09:33:36.878Z,99.90
2019-05-02T09:36:07.812Z,99.90
2019-05-02T09:38:37.443Z,99.90
2019-05-02T09:41:16.182Z,99.90
2019-05-02T09:43:39.259Z,99.90
2019-05-02T09:46:12.995Z,99.90
2019-05-02T09:48:40.154Z,99.90
2019-05-02T09:51:12.865Z,99.90
2019-05-02T09:53:43.015Z,99.90
2019-05-02T09:56:12.683Z,99.90
2019-05-02T09:58:43.859Z,99.90
2019-05-02T10:01:42.410Z,99.90
2019-05-02T10:04:12.124Z,99.90
2019-05-02T10:06:42.927Z,99.90
2019-05-02T10:09:12.881Z,99.90
2019-05-02T10:11:43.133Z,99.90
2019-05-02T10:14:13.311Z,99.90
2019-05-02T10:16:42.955Z,99.90
2019-05-02T10:19:13.515Z,99.90
2019-05-02T10:21:47.083Z,99.90
2019-05-02T10:24:14.145Z,99.90
2019-05-02T10:26:43.537Z,99.90
2019-05-02T10:29:13.023Z,99.90
2019-05-02T10:31:42.721Z,99.90
2019-05-02T10:34:16.349Z,99.90
2019-05-02T10:36:45.472Z,99.90
2019-05-02T10:39:15.832Z,99.90
2019-05-02T10:41:45.643Z,99.90
2019-05-02T10:44:15.141Z,99.90
2019-05-02T10:46:54.976Z,99.90
2019-05-02T10:49:32.276Z,99.90
2019-05-02T10:52:02.627Z,99.90
2019-05-02T10:54:33.815Z,99.90
2019-05-02T10:57:04.240Z,99.90
2019-05-02T10:59:33.691Z,99.90
2019-05-02T11:02:22.231Z,99.90
2019-05-02T11:04:55.044Z,99.90
2019-05-02T11:07:26.403Z,99.90
2019-05-02T11:09:57.322Z,99.90
2019-05-02T11:12:41.892Z,99.90
2019-05-02T11:15:22.375Z,99.90
2019-05-02T11:17:52.874Z,99.90
2019-05-02T11:20:22.497Z,99.90
2019-05-02T11:22:54.388Z,99.90
2019-05-02T11:25:23.131Z,99.90
2019-05-02T11:27:52.722Z,99.90
2019-05-02T11:30:26.381Z,99.90
2019-05-02T11:32:53.216Z,99.90
2019-05-02T11:35:23.475Z,99.90
2019-05-02T11:37:53.174Z,99.90
2019-05-02T11:40:22.801Z,99.90
2019-05-02T11:42:52.324Z,99.90
2019-05-02T11:45:22.693Z,99.90
2019-05-02T11:47:55.660Z,99.90
2019-05-02T11:50:26.635Z,99.90
2019-05-02T11:52:54.352Z,99.90
2019-05-02T11:55:28.712Z,99.90
2019-05-02T11:57:54.688Z,99.90
2019-05-02T12:00:24.431Z,99.90
2019-05-02T12:03:14.619Z,99.90
2019-05-02T12:05:44.284Z,99.90
2019-05-02T12:08:13.862Z,99.90
2019-05-02T12:10:43.259Z,99.90
2019-05-02T12:13:16.021Z,99.90
2019-05-02T12:15:44.411Z,99.90
2019-05-02T12:18:13.915Z,99.90
2019-05-02T12:20:43.684Z,99.90
2019-05-02T12:23:13.208Z,99.90
2019-05-02T12:25:42.634Z,99.90
2019-05-02T12:28:12.197Z,99.90
2019-05-02T12:30:42.069Z,99.90
2019-05-02T12:33:12.425Z,99.90
2019-05-02T12:35:43.227Z,99.90
2019-05-02T12:38:12.943Z,99.90
2019-05-02T12:40:42.480Z,99.90
2019-05-02T12:43:12.178Z,99.90
2019-05-02T12:45:42.188Z,99.90
2019-05-02T12:48:12.970Z,99.90
2019-05-02T12:50:43.063Z,99.90
2019-05-02T12:53:13.046Z,99.90
2019-05-02T12:55:42.532Z,99.90
2019-05-02T12:58:12.561Z,99.90
2019-05-02T13:00:43.094Z,99.90
2019-05-02T13:03:31.710Z,99.90
2019-05-02T13:06:02.977Z,99.60
2019-05-02T13:08:35.048Z,99.80
2019-05-02T13:11:15.249Z,98.20
2019-05-02T13:13:44.738Z,98.00
2019-05-02T13:16:14.374Z,97.40
2019-05-02T13:18:44.112Z,94.20
2019-05-02T13:21:17.056Z,90.10
2019-05-02T13:23:51.754Z,85.80
2019-05-02T13:26:26.563Z,78.50
2019-05-02T13:28:52.177Z,73.90
2019-05-02T13:31:33.872Z,77.30
2019-05-02T13:34:14.892Z,73.20
2019-05-02T13:36:45.535Z,74.10
2019-05-02T13:39:32.623Z,73.90
2019-05-02T13:42:02.163Z,77.90
2019-05-02T13:44:33.679Z,83.70
2019-05-02T13:47:03.172Z,81.60
2019-05-02T13:49:32.622Z,77.70
2019-05-02T13:52:02.542Z,75.50
2019-05-02T13:54:33.123Z,69.50
2019-05-02T13:57:03.216Z,68.00
2019-05-02T13:59:33.765Z,71.00
2019-05-02T14:02:05.012Z,74.00
2019-05-02T14:04:35.607Z,77.10
2019-05-02T14:07:07.697Z,78.80
2019-05-02T14:09:58.113Z,77.10
2019-05-02T14:12:48.664Z,74.90
2019-05-02T14:15:22.145Z,72.60
2019-05-02T14:17:52.530Z,60.20
2019-05-02T14:20:22.556Z,55.00
2019-05-02T14:22:52.771Z,54.10
2019-05-02T14:25:22.620Z,57.10
2019-05-02T14:27:55.515Z,55.70
2019-05-02T14:30:36.260Z,53.50
2019-05-02T14:32:59.119Z,49.50
2019-05-02T14:35:32.458Z,52.00
2019-05-02T14:38:23.624Z,55.50
2019-05-02T14:41:09.428Z,58.00
2019-05-02T14:43:53.290Z,59.50
2019-05-02T14:46:28.750Z,59.20
2019-05-02T14:48:55.646Z,54.60
2019-05-02T14:51:27.912Z,50.60
2019-05-02T14:54:05.840Z,50.70
2019-05-02T14:56:47.923Z,54.80
2019-05-02T14:59:19.763Z,56.50
2019-05-02T15:01:52.837Z,52.80
2019-05-02T15:04:22.725Z,51.10
2019-05-02T15:06:52.630Z,51.10
2019-05-02T15:09:26.821Z,54.30
2019-05-02T15:12:02.417Z,54.20
2019-05-02T15:14:36.017Z,50.20
2019-05-02T15:17:06.017Z,45.70
2019-05-02T15:19:35.409Z,44.30
2019-05-02T15:22:04.950Z,41.70
2019-05-02T15:24:37.642Z,41.50
2019-05-02T15:27:12.079Z,41.70
2019-05-02T15:29:36.654Z,41.80
2019-05-02T15:32:25.461Z,41.80
2019-05-02T15:35:28.709Z,40.10
2019-05-02T15:38:02.466Z,41.40
2019-05-02T15:43:04.595Z,41.40
2019-05-02T15:45:36.542Z,41.10
2019-05-02T15:48:03.434Z,40.50
2019-05-02T15:50:32.951Z,42.30
2019-05-02T15:53:10.161Z,43.90
2019-05-02T15:55:42.112Z,41.40
2019-05-02T15:58:22.671Z,39.30
2019-05-02T16:00:56.594Z,39.10
2019-05-02T16:03:45.478Z,41.90
2019-05-02T16:06:16.338Z,46.90
2019-05-02T16:08:47.381Z,48.20
2019-05-02T16:11:17.990Z,50.70
2019-05-02T16:13:52.734Z,52.80
2019-05-02T16:16:21.958Z,54.80
2019-05-02T16:18:52.551Z,57.90
2019-05-02T16:21:30.606Z,62.10
2019-05-02T16:24:17.454Z,63.80
2019-05-02T16:26:47.060Z,67.80
2019-05-02T16:29:23.421Z,70.80
2019-05-02T16:31:54.920Z,71.40
2019-05-02T16:34:27.416Z,72.40
2019-05-02T16:37:13.490Z,76.00
2019-05-02T16:39:44.395Z,78.50
2019-05-02T16:42:12.452Z,78.20
2019-05-02T16:44:42.971Z,77.50
2019-05-02T16:47:13.996Z,78.60
2019-05-02T16:49:47.821Z,79.80
2019-05-02T16:52:16.077Z,81.10
2019-05-02T16:54:45.629Z,82.60
2019-05-02T16:57:17.559Z,82.20
2019-05-02T16:59:46.474Z,81.30
2019-05-02T17:02:16.108Z,81.50
2019-05-02T17:04:45.702Z,81.80
2019-05-02T17:07:23.307Z,81.30
2019-05-02T17:10:08.491Z,79.50
2019-05-02T17:12:36.887Z,78.90
2019-05-02T17:15:26.286Z,76.20
2019-05-02T17:17:56.064Z,74.70
2019-05-02T17:20:25.801Z,74.00
2019-05-02T17:23:01.956Z,73.30
2019-05-02T17:25:26.632Z,72.30
2019-05-02T17:28:03.990Z,71.20
2019-05-02T17:30:26.245Z,69.50
2019-05-02T17:32:54.647Z,69.30
2019-05-02T17:35:23.591Z,69.40
2019-05-02T17:37:52.577Z,70.70
2019-05-02T17:40:22.493Z,69.50
2019-05-02T17:42:52.473Z,68.50
2019-05-02T17:45:23.741Z,69.10
2019-05-02T17:47:51.556Z,69.90
2019-05-02T17:50:42.316Z,69.00
2019-05-02T17:53:11.647Z,67.90
2019-05-02T17:55:44.251Z,69.00
2019-05-02T17:58:14.149Z,71.20
2019-05-02T18:00:47.388Z,76.00
2019-05-02T18:03:18.194Z,80.30
2019-05-02T18:05:47.931Z,83.90
2019-05-02T18:08:17.594Z,86.40
2019-05-02T18:10:50.691Z,86.80
2019-05-02T18:13:18.454Z,87.20
2019-05-02T18:15:47.951Z,88.30
2019-05-02T18:18:17.392Z,88.50
2019-05-02T18:20:47.881Z,89.20
2019-05-02T18:23:18.653Z,90.00
2019-05-02T18:25:48.477Z,90.10
2019-05-02T18:28:24.545Z,90.50
2019-05-02T18:30:50.127Z,90.90
2019-05-02T18:33:19.560Z,91.00
2019-05-02T18:35:49.412Z,91.40
2019-05-02T18:38:20.921Z,91.40
2019-05-02T18:40:52.457Z,91.70
2019-05-02T18:43:22.272Z,92.30
2019-05-02T18:45:51.901Z,92.20
2019-05-02T18:48:22.007Z,92.40
2019-05-02T18:50:52.677Z,92.70
2019-05-02T18:53:24.096Z,92.60
2019-05-02T18:55:56.777Z,92.80
2019-05-02T18:58:25.084Z,93.10
2019-05-02T19:00:55.068Z,93.70
2019-05-02T19:03:24.506Z,93.80
2019-05-02T19:05:57.159Z,94.00
2019-05-02T19:08:31.222Z,94.40
2019-05-02T19:11:06.066Z,95.10
2019-05-02T19:13:32.169Z,95.60
2019-05-02T19:15:59.721Z,96.40
2019-05-02T19:18:29.342Z,96.40
2019-05-02T19:21:03.750Z,96.80
2019-05-02T19:23:34.329Z,97.10
2019-05-02T19:26:10.269Z,97.20
2019-05-02T19:28:53.125Z,97.40
2019-05-02T19:31:24.594Z,97.30
2019-05-02T19:33:54.171Z,97.30
2019-05-02T19:36:27.466Z,97.40
2019-05-02T19:38:57.360Z,97.50
2019-05-02T19:41:26.056Z,97.50
2019-05-02T19:43:55.460Z,97.50
2019-05-02T19:46:34.683Z,97.60
2019-05-02T19:48:56.038Z,97.60
2019-05-02T19:51:28.102Z,97.70
2019-05-02T19:53:59.599Z,98.10
2019-05-02T19:56:33.331Z,98.20
2019-05-02T19:58:59.208Z,98.30
2019-05-02T20:01:28.621Z,98.60
2019-05-02T20:04:02.261Z,98.80
2019-05-02T20:06:29.118Z,98.90
2019-05-02T20:08:59.196Z,99.00
2019-05-02T20:11:32.830Z,99.00
2019-05-02T20:14:05.504Z,99.10
2019-05-02T20:16:52.799Z,99.10
2019-05-02T20:19:26.819Z,99.30
2019-05-02T20:22:04.768Z,99.50
2019-05-02T20:24:58.354Z,99.60
2019-05-02T20:27:28.249Z,99.60
2019-05-02T20:29:57.453Z,99.60
2019-05-02T20:32:27.083Z,99.60
2019-05-02T20:34:56.557Z,99.80
2019-05-02T20:37:26.274Z,99.90
2019-05-02T20:39:55.866Z,99.90
2019-05-02T20:42:25.574Z,99.90
2019-05-02T20:44:55.613Z,99.90
2019-05-02T20:47:26.263Z,99.90
2019-05-02T20:49:55.943Z,99.90
2019-05-02T20:52:25.617Z,99.90
2019-05-02T20:54:55.377Z,99.90
2019-05-02T20:57:24.871Z,99.90
2019-05-02T20:59:54.415Z,99.90
2019-05-02T21:02:23.970Z,99.90
2019-05-02T21:04:53.442Z,99.90
2019-05-02T21:07:42.415Z,99.90
2019-05-02T21:10:28.126Z,99.90
2019-05-02T21:12:57.645Z,99.90
2019-05-02T21:15:27.210Z,99.90
2019-05-02T21:17:56.821Z,99.90
2019-05-02T21:20:26.474Z,99.90
2019-05-02T21:22:56.382Z,99.90
2019-05-02T21:25:25.953Z,99.90
2019-05-02T21:27:55.437Z,99.90
2019-05-02T21:30:26.650Z,99.90
2019-05-02T21:32:56.283Z,99.90
2019-05-02T21:35:25.905Z,99.90
2019-05-02T21:37:55.417Z,99.90
2019-05-02T21:40:25.915Z,99.90
2019-05-02T21:42:55.537Z,99.90
2019-05-02T21:45:25.145Z,99.90
2019-05-02T21:47:54.827Z,99.90
2019-05-02T21:50:38.998Z,99.90
2019-05-02T21:53:23.827Z,99.90
2019-05-02T21:56:02.808Z,99.90
2019-05-02T21:58:32.629Z,99.90
2019-05-02T22:01:22.166Z,99.90
2019-05-02T22:03:52.154Z,99.90
2019-05-02T22:06:22.660Z,99.90
2019-05-02T22:08:52.388Z,99.90
2019-05-02T22:11:22.574Z,99.90
2019-05-02T22:13:52.169Z,99.90
2019-05-02T22:16:21.942Z,99.90
2019-05-02T22:18:52.184Z,99.90
2019-05-02T22:21:22.773Z,99.90
2019-05-02T22:23:52.336Z,99.90
2019-05-02T22:26:22.865Z,99.90
2019-05-02T22:28:53.759Z,99.90
2019-05-02T22:31:23.405Z,99.90
2019-05-02T22:33:53.019Z,99.90
2019-05-02T22:36:22.730Z,99.90
2019-05-02T22:39:14.261Z,99.90
2019-05-02T22:41:43.922Z,99.90
2019-05-02T22:44:13.443Z,99.90
2019-05-02T22:46:44.513Z,99.90
2019-05-02T22:49:15.092Z,99.90
2019-05-02T22:51:45.093Z,99.90
2019-05-02T22:54:26.714Z,99.90
2019-05-02T22:56:45.913Z,99.90
2019-05-02T22:59:15.476Z,99.90
2019-05-02T23:01:45.320Z,99.90
2019-05-02T23:04:14.811Z,99.90
2019-05-02T23:06:44.404Z,99.90
2019-05-02T23:09:13.947Z,99.90
2019-05-02T23:11:43.522Z,99.90
2019-05-02T23:14:13.049Z,99.90
2019-05-02T23:16:43.063Z,99.90
2019-05-02T23:19:12.786Z,99.90
2019-05-02T23:21:42.544Z,99.90
2019-05-02T23:24:18.173Z,99.90
2019-05-02T23:26:54.144Z,99.90
2019-05-02T23:29:23.649Z,99.90
2019-05-02T23:31:54.085Z,99.90
2019-05-02T23:34:23.715Z,99.90
2019-05-02T23:36:53.321Z,99.90
2019-05-02T23:39:22.805Z,99.90
2019-05-02T23:41:52.551Z,99.90
2019-05-02T23:44:22.882Z,99.90
2019-05-02T23:46:52.382Z,99.90
2019-05-02T23:49:22.128Z,99.90
2019-05-02T23:51:51.915Z,99.90
2019-05-02T23:54:22.059Z,99.90
2019-05-02T23:56:51.670Z,99.90
2019-05-02T23:59:22.343Z,99.90
